This is the latest recevied weather packets stored in our database for station/object WX7FGZ-5. If no packets are shown the sender has not sent any weather packets the latest 10 day(s).
| Time | Temp. | Humidity | Pressure | Rain* | Wind** | Luminosity | Snow |
|---|---|---|---|---|---|---|---|
| 1777592687 | 18.33° C | 17% | 1016.2 hPa | 0 mm | - | 624 W/m² | - |
| 1777592387 | 18.33° C | 17% | 1016 hPa | 0 mm | - | 207 W/m² | - |
| 1777591488 | 18.89° C | 17% | 1016 hPa | 0 mm | - | 717 W/m² | - |
| 1777591190 | 18.33° C | 18% | 1016 hPa | 0 mm | - | 229 W/m² | - |
| 1777590589 | 18.89° C | 17% | 1015.9 hPa | 0 mm | - | 766 W/m² | - |
| 1777590289 | 19.44° C | 18% | 1016 hPa | 0 mm | - | 775 W/m² | - |
| 1777589989 | 18.89° C | 18% | 1016.1 hPa | 0 mm | - | 795 W/m² | - |
| 1777589692 | 18.89° C | 17% | 1016.2 hPa | 0 mm | - | 803 W/m² | - |
| 1777589089 | 18.89° C | 18% | 1016.3 hPa | 0 mm | - | 791 W/m² | - |
| 1777588489 | 18.89° C | 18% | 1016.2 hPa | 0 mm | - | 810 W/m² | - |
| 1777587251 | 18.89° C | 17% | 1016.8 hPa | 0 mm | - | 888 W/m² | - |
| 1777586951 | 18.89° C | 18% | 1016.9 hPa | 0 mm | - | 882 W/m² | - |
| 1777586352 | 18.33° C | 19% | 1017 hPa | 0 mm | - | 733 W/m² | - |
| 1777586300 | 18.33° C | 18% | 1017.1 hPa | 0 mm | - | 904 W/m² | - |
| 1777586072 | 18.33° C | 18% | 1017.1 hPa | 0 mm | - | 904 W/m² | - |
| 1777585754 | 18.33° C | 18% | 1017.3 hPa | 0 mm | - | 229 W/m² | - |
| 1777585392 | 18.89° C | 19% | 1017.2 hPa | 0 mm | - | 1005 W/m² | - |
| 1777585150 | 18.89° C | 19% | 1017.2 hPa | 0 mm | - | 1005 W/m² | - |
| 1777584559 | 18.89° C | 18% | 1017.5 hPa | 0 mm | - | 1023 W/m² | - |
| 1777584176 | 18.33° C | 19% | 1017.4 hPa | 0 mm | - | 1027 W/m² | - |
| 1777583950 | 18.33° C | 19% | 1017.4 hPa | 0 mm | - | 1027 W/m² | - |
| 1777583653 | 17.78° C | 20% | 1017.7 hPa | 0 mm | - | 1125 W/m² | - |
| 1777582751 | 16.67° C | 19% | 1017.9 hPa | 0 mm | - | 265 W/m² | - |
| 1777581267 | 18.33° C | 18% | 1017.9 hPa | 0 mm | - | 951 W/m² | - |
| 1777580349 | 18.33° C | 17% | 1018.1 hPa | 0 mm | - | 1044 W/m² | - |
* Rain latest hour (hover to see other rain measurements)
** Current wind speed in m/s (hover to see current wind gust speed)